Time;durP1;ratioP1;P1;durP2;ratioP2;P2;SDS_P1;SDS_P2;PMS_P1;PMS_P2;Temp;Humidity;BMP_temperature;BMP_pressure;BME280_temperature;BME280_humidity;BME280_pressure;Samples;Min_cycle;Max_cycle;Signal;HPM_P1;HPM_P2
2022/04/04 00:01:49;;;;;;;5.75;3.60;;;3.20;99.90;;;;;;5097622;28;20040;-74
2022/04/04 00:04:14;;;;;;;7.10;3.70;;;3.30;99.90;;;;;;5080968;28;20054;-74
2022/04/04 00:06:40;;;;;;;8.13;3.47;;;3.20;99.90;;;;;;5080664;28;20044;-75
2022/04/04 00:09:05;;;;;;;7.32;3.70;;;3.20;99.90;;;;;;5097591;28;20162;-74
2022/04/04 00:11:31;;;;;;;9.32;4.00;;;3.20;99.90;;;;;;5097630;28;20040;-75
2022/04/04 00:13:57;;;;;;;7.68;3.83;;;3.20;99.90;;;;;;5097696;28;20164;-75
2022/04/04 00:16:22;;;;;;;6.55;3.72;;;3.10;99.90;;;;;;5097425;28;20088;-74
2022/04/04 00:18:49;;;;;;;7.13;4.03;;;3.10;99.90;;;;;;5097397;28;20518;-74
2022/04/04 00:21:15;;;;;;;4.50;3.47;;;3.10;99.90;;;;;;5097287;28;20039;-74
2022/04/04 00:23:40;;;;;;;5.28;4.00;;;3.10;99.90;;;;;;5097199;28;20400;-74
2022/04/04 00:26:06;;;;;;;8.07;3.67;;;3.10;99.90;;;;;;5097151;28;20051;-74
2022/04/04 00:28:32;;;;;;;5.50;3.53;;;3.10;99.90;;;;;;5096498;28;20118;-75
2022/04/04 00:30:58;;;;;;;6.03;3.20;;;3.10;99.90;;;;;;5097664;28;20035;-75
2022/04/04 00:33:23;;;;;;;5.75;3.72;;;3.10;99.90;;;;;;5097203;28;20476;-75
2022/04/04 00:35:49;;;;;;;6.65;3.63;;;3.00;99.90;;;;;;5097448;28;20031;-74
2022/04/04 00:38:14;;;;;;;5.93;3.67;;;3.10;99.90;;;;;;5097039;28;20404;-75
2022/04/04 00:40:43;;;;;;;6.22;4.10;;;3.10;99.90;;;;;;5096935;28;20087;-75
2022/04/04 00:43:09;;;;;;;5.03;3.58;;;3.10;99.90;;;;;;5096849;28;20040;-75
2022/04/04 00:45:34;;;;;;;6.47;3.90;;;3.10;99.90;;;;;;5096835;28;20517;-75
2022/04/04 00:48:00;;;;;;;7.28;3.97;;;3.10;99.90;;;;;;5096694;28;20043;-75
2022/04/04 00:50:26;;;;;;;7.38;3.97;;;3.20;99.90;;;;;;5096779;28;20040;-75
2022/04/04 00:52:52;;;;;;;5.07;3.50;;;3.20;99.90;;;;;;5096653;28;20043;-75
2022/04/04 00:55:17;;;;;;;8.10;4.30;;;3.20;99.90;;;;;;5096644;28;20032;-74
2022/04/04 00:57:44;;;;;;;6.75;4.07;;;3.20;99.90;;;;;;5096605;28;20039;-74
2022/04/04 01:00:11;;;;;;;7.65;3.83;;;3.30;99.90;;;;;;5096618;28;20039;-75
2022/04/04 01:02:38;;;;;;;8.95;4.13;;;3.20;99.90;;;;;;5096629;28;20108;-75
2022/04/04 01:05:04;;;;;;;7.00;4.40;;;3.30;99.90;;;;;;5096461;28;20092;-75
2022/04/04 01:07:30;;;;;;;9.02;5.00;;;3.30;99.90;;;;;;5096339;28;20045;-75
2022/04/04 01:09:56;;;;;;;9.23;4.80;;;3.30;99.90;;;;;;5096703;28;20035;-75
2022/04/04 01:12:22;;;;;;;10.05;5.47;;;3.40;99.90;;;;;;5096588;28;20568;-75
2022/04/04 01:14:48;;;;;;;7.50;5.00;;;3.40;99.90;;;;;;5096254;28;20035;-75
2022/04/04 01:17:21;;;;;;;11.68;6.07;;;3.50;99.90;;;;;;5096466;28;20089;-75
2022/04/04 01:19:47;;;;;;;10.85;6.28;;;3.50;99.90;;;;;;5096558;28;20118;-75
2022/04/04 01:22:14;;;;;;;8.55;6.57;;;3.60;99.90;;;;;;5079204;28;20078;-75
2022/04/04 01:24:40;;;;;;;12.77;6.93;;;3.60;99.90;;;;;;5096368;28;20130;-75
2022/04/04 01:27:08;;;;;;;13.88;7.53;;;3.70;99.90;;;;;;5095922;28;20048;-74
2022/04/04 01:29:34;;;;;;;13.00;7.45;;;3.70;99.90;;;;;;5096005;28;20040;-74
2022/04/04 01:32:00;;;;;;;14.88;8.88;;;3.80;99.90;;;;;;5095703;28;20499;-75
2022/04/04 01:34:26;;;;;;;11.32;8.52;;;3.80;99.90;;;;;;5096437;28;20548;-74
2022/04/04 01:36:56;;;;;;;13.18;9.80;;;3.90;99.90;;;;;;5079277;28;20096;-74
2022/04/04 01:39:21;;;;;;;14.85;9.80;;;3.80;99.90;;;;;;5078044;28;20487;-74
2022/04/04 01:41:47;;;;;;;10.68;8.88;;;3.90;99.90;;;;;;5095942;28;20091;-73
2022/04/04 01:44:13;;;;;;;10.93;9.50;;;3.90;99.90;;;;;;5095993;28;20043;-73
2022/04/04 01:46:39;;;;;;;13.57;9.18;;;3.90;99.90;;;;;;5095589;28;20046;-74
2022/04/04 01:49:06;;;;;;;12.35;9.10;;;3.90;99.90;;;;;;5095774;28;20036;-74
2022/04/04 01:51:34;;;;;;;11.80;8.90;;;3.90;99.90;;;;;;5095491;28;20051;-74
2022/04/04 01:54:00;;;;;;;13.27;9.00;;;4.00;99.90;;;;;;5078717;28;20510;-74
2022/04/04 01:56:27;;;;;;;12.43;8.55;;;3.90;99.90;;;;;;5095853;28;20044;-74
2022/04/04 01:58:53;;;;;;;13.57;9.15;;;3.90;99.90;;;;;;5095559;28;20118;-74
2022/04/04 02:01:21;;;;;;;10.85;8.80;;;4.00;99.90;;;;;;5078701;28;20131;-74
2022/04/04 02:03:49;;;;;;;9.60;8.60;;;4.00;99.90;;;;;;5095415;28;20114;-74
2022/04/04 02:06:15;;;;;;;12.07;9.20;;;3.90;99.90;;;;;;5095595;28;20138;-74
2022/04/04 02:08:44;;;;;;;13.65;9.30;;;4.00;99.90;;;;;;5078716;28;20543;-74
2022/04/04 02:11:10;;;;;;;12.57;9.40;;;4.00;99.90;;;;;;5095393;28;20038;-74
2022/04/04 02:13:36;;;;;;;13.48;9.23;;;4.00;99.90;;;;;;5095310;28;20119;-74
2022/04/04 02:16:03;;;;;;;10.48;9.15;;;4.00;99.90;;;;;;5095358;28;20036;-74
2022/04/04 02:18:30;;;;;;;15.63;9.55;;;4.00;99.90;;;;;;5095410;28;20089;-74
2022/04/04 02:20:59;;;;;;;15.32;9.32;;;3.90;99.90;;;;;;5078430;28;20557;-74
2022/04/04 02:23:25;;;;;;;14.45;9.02;;;4.00;99.90;;;;;;5095174;28;20040;-74
2022/04/04 02:25:53;;;;;;;19.83;9.52;;;4.00;99.90;;;;;;5095143;28;20047;-74
2022/04/04 02:28:19;;;;;;;15.05;9.70;;;4.00;99.90;;;;;;5095215;28;20036;-74
2022/04/04 02:30:46;;;;;;;11.18;9.38;;;4.00;99.90;;;;;;5095492;28;20043;-74
2022/04/04 02:33:12;;;;;;;13.55;9.38;;;4.00;99.90;;;;;;5095015;28;20039;-74
2022/04/04 02:35:38;;;;;;;13.02;9.50;;;4.00;99.90;;;;;;5095124;28;20036;-74
2022/04/04 02:38:05;;;;;;;13.20;9.57;;;4.00;99.90;;;;;;5095347;28;20097;-74
2022/04/04 02:40:31;;;;;;;12.27;9.55;;;4.00;99.90;;;;;;5095149;28;20066;-74
2022/04/04 02:42:57;;;;;;;15.13;10.52;;;4.00;99.90;;;;;;5095022;28;20578;-74
2022/04/04 02:45:22;;;;;;;13.93;10.00;;;4.00;99.90;;;;;;5078597;28;20122;-74
2022/04/04 02:47:48;;;;;;;13.63;9.98;;;4.00;99.90;;;;;;5095009;28;20510;-74
2022/04/04 02:50:15;;;;;;;21.52;10.65;;;4.10;99.90;;;;;;5095054;28;20052;-74
2022/04/04 02:52:40;;;;;;;15.90;10.18;;;4.10;99.90;;;;;;5081865;28;20043;-74
2022/04/04 02:57:51;;;;;;;15.50;10.20;;;4.10;99.90;;;;;;5099189;28;20048;-74
2022/04/04 03:00:19;;;;;;;16.02;11.25;;;4.10;99.90;;;;;;5081937;28;20035;-74
2022/04/04 03:02:46;;;;;;;13.10;10.52;;;4.10;99.90;;;;;;5099059;28;20104;-74
2022/04/04 03:05:13;;;;;;;17.08;11.13;;;4.20;99.90;;;;;;5082149;28;20051;-74
2022/04/04 03:07:42;;;;;;;17.85;11.30;;;4.10;99.90;;;;;;5082190;28;20047;-74
2022/04/04 03:10:09;;;;;;;12.93;11.18;;;4.20;99.90;;;;;;5098721;28;20035;-74
2022/04/04 03:12:40;;;;;;;15.07;10.55;;;4.20;99.90;;;;;;5098565;28;20143;-74
2022/04/04 03:15:07;;;;;;;16.75;11.57;;;4.30;99.90;;;;;;5082030;28;20040;-74
2022/04/04 03:17:32;;;;;;;16.95;11.52;;;4.30;99.90;;;;;;5098520;28;20035;-74
2022/04/04 03:19:58;;;;;;;16.20;10.93;;;4.30;99.90;;;;;;5081648;28;20031;-74
2022/04/04 03:22:23;;;;;;;14.90;11.40;;;4.30;99.90;;;;;;5081482;28;20035;-74
2022/04/04 03:24:49;;;;;;;17.60;11.68;;;4.40;99.90;;;;;;5098441;28;20142;-74
2022/04/04 03:27:14;;;;;;;16.35;11.23;;;4.40;99.90;;;;;;5098364;28;20036;-74
2022/04/04 03:29:44;;;;;;;23.33;12.23;;;4.40;99.90;;;;;;5098246;28;20035;-74
2022/04/04 03:32:10;;;;;;;16.30;12.73;;;4.50;99.90;;;;;;5081138;28;20032;-74
2022/04/04 03:34:35;;;;;;;19.63;12.43;;;4.50;99.90;;;;;;5098206;28;20032;-74
2022/04/04 03:37:01;;;;;;;16.88;11.18;;;4.50;99.90;;;;;;5098362;28;20035;-74
2022/04/04 03:39:27;;;;;;;16.58;11.23;;;4.50;99.90;;;;;;5081593;28;20458;-74
2022/04/04 03:41:54;;;;;;;17.00;11.52;;;4.60;99.90;;;;;;5081132;28;20039;-74
2022/04/04 03:44:20;;;;;;;17.67;11.50;;;4.60;99.90;;;;;;5098078;28;20044;-74
2022/04/04 03:46:46;;;;;;;15.18;11.23;;;4.60;99.90;;;;;;5098086;28;20092;-73
2022/04/04 03:49:11;;;;;;;16.30;11.32;;;4.70;99.90;;;;;;5098225;28;20108;-73
2022/04/04 03:51:37;;;;;;;14.15;10.20;;;4.70;99.90;;;;;;5081230;28;20472;-74
2022/04/04 03:54:03;;;;;;;16.38;11.13;;;4.70;99.90;;;;;;5081021;28;20560;-74
2022/04/04 03:56:28;;;;;;;14.70;10.93;;;4.70;99.90;;;;;;5097828;28;20043;-74
2022/04/04 03:58:54;;;;;;;15.68;11.43;;;4.80;99.90;;;;;;5098030;28;20044;-74
2022/04/04 04:01:22;;;;;;;13.77;10.82;;;4.80;99.90;;;;;;5080758;28;20124;-73
2022/04/04 04:03:47;;;;;;;15.75;10.77;;;4.80;99.90;;;;;;5096814;28;20043;-73
2022/04/04 04:06:14;;;;;;;18.10;11.02;;;4.80;99.90;;;;;;5097562;28;20044;-73
2022/04/04 04:08:45;;;;;;;14.10;10.68;;;4.80;99.90;;;;;;5080934;28;20058;-73
2022/04/04 04:11:13;;;;;;;15.43;10.55;;;4.90;99.90;;;;;;5080602;28;20554;-73
2022/04/04 04:13:41;;;;;;;18.23;10.20;;;4.80;99.90;;;;;;5080530;28;20031;-74
2022/04/04 04:16:13;;;;;;;14.68;10.05;;;4.90;99.90;;;;;;5097423;28;20514;-74
2022/04/04 04:18:39;;;;;;;15.07;10.73;;;4.90;99.90;;;;;;5080804;28;20035;-74
2022/04/04 04:21:06;;;;;;;18.95;11.27;;;4.90;99.90;;;;;;5080396;28;20039;-74
2022/04/04 04:23:33;;;;;;;15.80;10.60;;;4.90;99.90;;;;;;5080334;28;20040;-74
2022/04/04 04:25:58;;;;;;;15.00;10.13;;;4.80;99.90;;;;;;5080316;28;20152;-74
2022/04/04 04:28:24;;;;;;;19.20;11.30;;;4.80;99.90;;;;;;5080356;28;20041;-73
2022/04/04 04:30:49;;;;;;;18.42;11.38;;;4.90;99.90;;;;;;5080273;28;20055;-73
2022/04/04 04:33:15;;;;;;;14.90;10.52;;;4.90;99.90;;;;;;5096754;28;20035;-73
2022/04/04 04:35:41;;;;;;;15.20;11.10;;;4.90;99.90;;;;;;5080251;28;20032;-73
2022/04/04 04:38:07;;;;;;;20.98;11.68;;;4.90;99.90;;;;;;5096963;28;20093;-73
2022/04/04 04:40:33;;;;;;;17.23;10.55;;;4.90;99.90;;;;;;5080294;28;20035;-73
2022/04/04 04:43:00;;;;;;;16.98;10.38;;;4.90;99.90;;;;;;5096807;28;20407;-74
2022/04/04 04:45:28;;;;;;;15.20;10.20;;;4.90;99.90;;;;;;5080094;28;20035;-74
2022/04/04 04:47:54;;;;;;;17.88;11.63;;;4.90;99.90;;;;;;5096696;28;20035;-74
2022/04/04 04:50:22;;;;;;;16.08;9.57;;;4.90;99.90;;;;;;5079858;28;20510;-74
2022/04/04 04:52:48;;;;;;;12.88;10.32;;;4.90;99.90;;;;;;5096680;28;20067;-74
2022/04/04 04:55:16;;;;;;;17.75;10.85;;;4.90;99.90;;;;;;5096608;28;20491;-74
2022/04/04 04:57:41;;;;;;;15.50;10.57;;;4.90;99.90;;;;;;5096611;28;20130;-74
2022/04/04 05:00:10;;;;;;;17.08;10.50;;;4.80;99.90;;;;;;5096757;28;20135;-74
2022/04/04 05:02:36;;;;;;;16.75;11.35;;;4.90;99.90;;;;;;5096360;28;20046;-74
2022/04/04 05:05:04;;;;;;;18.70;11.77;;;4.90;99.90;;;;;;5096508;28;20092;-74
2022/04/04 05:07:30;;;;;;;16.75;10.85;;;4.80;99.90;;;;;;5079568;28;20044;-74
2022/04/04 05:09:56;;;;;;;18.00;11.73;;;4.80;99.90;;;;;;5096404;28;20036;-74
2022/04/04 05:12:22;;;;;;;17.90;11.65;;;4.90;99.90;;;;;;5096557;28;20039;-74
2022/04/04 05:14:48;;;;;;;14.57;11.27;;;4.80;99.90;;;;;;5096353;28;20036;-74
2022/04/04 05:17:14;;;;;;;16.75;11.05;;;4.80;99.90;;;;;;5079590;28;20047;-74
2022/04/04 05:19:39;;;;;;;18.40;11.73;;;4.80;99.90;;;;;;5096209;28;20423;-73
2022/04/04 05:22:05;;;;;;;16.48;11.50;;;4.80;99.90;;;;;;5096144;28;20061;-73
2022/04/04 05:24:31;;;;;;;17.25;11.60;;;4.80;99.90;;;;;;5096425;28;20050;-73
2022/04/04 05:26:57;;;;;;;16.00;11.63;;;4.80;99.90;;;;;;5079016;28;20071;-73
2022/04/04 05:29:26;;;;;;;21.42;12.23;;;4.80;99.90;;;;;;5096029;28;20462;-73
2022/04/04 05:31:53;;;;;;;20.63;11.88;;;4.80;99.90;;;;;;5078908;28;20529;-73
2022/04/04 05:34:18;;;;;;;17.08;11.75;;;4.80;99.90;;;;;;5095934;28;20541;-73
2022/04/04 05:36:44;;;;;;;17.33;11.88;;;4.80;99.90;;;;;;5079013;28;20043;-73
2022/04/04 05:39:09;;;;;;;17.00;11.43;;;4.80;99.90;;;;;;5095952;28;20043;-73
2022/04/04 05:41:36;;;;;;;17.88;12.27;;;4.80;99.90;;;;;;5079184;28;20043;-73
2022/04/04 05:44:03;;;;;;;16.65;11.65;;;4.80;99.90;;;;;;5079127;28;20104;-73
2022/04/04 05:46:29;;;;;;;14.90;11.00;;;4.80;99.90;;;;;;5095704;28;20122;-73
2022/04/04 05:48:54;;;;;;;17.63;11.85;;;4.80;99.90;;;;;;5095786;28;20142;-73
2022/04/04 05:51:20;;;;;;;18.15;11.85;;;4.90;99.90;;;;;;5078785;28;20032;-73
2022/04/04 05:53:45;;;;;;;18.83;11.60;;;4.80;99.90;;;;;;5095533;28;20058;-73
2022/04/04 05:56:11;;;;;;;17.55;12.55;;;4.80;99.90;;;;;;5078807;28;20046;-73
2022/04/04 05:58:37;;;;;;;20.55;12.18;;;4.80;99.90;;;;;;5078639;28;20051;-73
2022/04/04 06:01:03;;;;;;;19.73;11.70;;;4.80;99.90;;;;;;5095425;28;20047;-73
2022/04/04 06:03:30;;;;;;;17.35;11.60;;;4.80;99.90;;;;;;5095457;28;20046;-73
2022/04/04 06:05:56;;;;;;;22.25;12.13;;;4.80;99.90;;;;;;5078515;28;20035;-73
2022/04/04 06:08:22;;;;;;;17.70;11.85;;;4.80;99.90;;;;;;5078931;28;20043;-73
2022/04/04 06:10:48;;;;;;;16.48;10.93;;;4.80;99.90;;;;;;5095498;28;20518;-73
2022/04/04 06:13:18;;;;;;;18.70;12.35;;;4.80;99.90;;;;;;5095278;28;20031;-73
2022/04/04 06:15:45;;;;;;;17.88;10.95;;;4.80;99.90;;;;;;5095783;28;20073;-73
2022/04/04 06:18:15;;;;;;;18.17;12.00;;;4.80;99.90;;;;;;5095474;28;20075;-72
2022/04/04 06:20:41;;;;;;;17.95;10.48;;;4.80;99.90;;;;;;5095383;28;20492;-76
2022/04/04 06:23:07;;;;;;;17.15;11.68;;;4.80;99.90;;;;;;5095213;28;20579;-73
2022/04/04 06:25:33;;;;;;;17.77;11.55;;;4.80;99.90;;;;;;5095506;28;20079;-72
2022/04/04 06:27:59;;;;;;;17.60;11.60;;;4.80;99.90;;;;;;5083613;28;20130;-72
2022/04/04 06:30:25;;;;;;;16.70;11.40;;;4.80;99.90;;;;;;5099603;28;20126;-72
2022/04/04 06:32:51;;;;;;;17.77;10.35;;;4.80;99.90;;;;;;5099587;28;20031;-73
2022/04/04 06:35:16;;;;;;;16.67;11.02;;;4.80;99.90;;;;;;5099596;28;20062;-73
2022/04/04 06:37:43;;;;;;;17.48;11.18;;;4.80;99.90;;;;;;5099322;28;20132;-73
2022/04/04 06:40:10;;;;;;;18.60;10.77;;;4.80;99.90;;;;;;5099231;28;20075;-73
2022/04/04 06:42:37;;;;;;;18.38;10.73;;;4.80;99.90;;;;;;5099122;28;20039;-73
2022/04/04 06:45:04;;;;;;;17.27;10.60;;;4.80;99.90;;;;;;5099202;28;20487;-73
2022/04/04 06:47:30;;;;;;;14.05;10.90;;;4.80;99.90;;;;;;5082084;28;20515;-73
2022/04/04 06:49:57;;;;;;;15.60;10.50;;;4.80;99.90;;;;;;5082300;28;20110;-72
2022/04/04 06:52:22;;;;;;;19.40;12.13;;;4.80;99.90;;;;;;5099064;28;20043;-73
2022/04/04 06:54:48;;;;;;;15.07;11.20;;;4.80;99.90;;;;;;5099465;28;20040;-73
2022/04/04 06:57:15;;;;;;;16.27;12.15;;;4.80;99.90;;;;;;5082395;28;20508;-74
2022/04/04 06:59:42;;;;;;;16.65;11.20;;;4.80;99.90;;;;;;5099160;28;20082;-73
2022/04/04 07:02:08;;;;;;;20.05;13.25;;;4.80;99.90;;;;;;5099023;28;20039;-72
2022/04/04 07:04:34;;;;;;;18.00;12.20;;;4.80;99.90;;;;;;5098906;28;20035;-73
2022/04/04 07:06:59;;;;;;;18.40;13.30;;;4.80;99.90;;;;;;5098645;28;20046;-73
2022/04/04 07:09:25;;;;;;;22.70;13.60;;;4.80;99.90;;;;;;5098829;28;20122;-72
2022/04/04 07:11:51;;;;;;;19.67;13.45;;;4.80;99.90;;;;;;5098726;28;20036;-73
2022/04/04 07:14:18;;;;;;;19.60;13.15;;;4.80;99.90;;;;;;5098782;28;20047;-73
2022/04/04 07:16:43;;;;;;;18.52;13.13;;;4.80;99.90;;;;;;5098631;28;20039;-72
2022/04/04 07:19:15;;;;;;;17.33;13.23;;;4.80;99.90;;;;;;5098834;28;20050;-72
2022/04/04 07:21:43;;;;;;;17.70;12.95;;;4.80;99.90;;;;;;5098703;28;20435;-72
2022/04/04 07:24:08;;;;;;;16.10;12.25;;;4.80;99.90;;;;;;5098510;28;20044;-72
2022/04/04 07:26:34;;;;;;;19.17;14.43;;;4.80;99.90;;;;;;5098537;28;20050;-71
2022/04/04 07:28:59;;;;;;;20.48;14.60;;;4.80;99.90;;;;;;5098367;28;20433;-71
2022/04/04 07:31:25;;;;;;;20.40;13.60;;;4.80;99.90;;;;;;5098312;28;20074;-72
2022/04/04 07:33:51;;;;;;;23.73;13.73;;;4.70;99.90;;;;;;5081460;28;20081;-72
2022/04/04 07:36:17;;;;;;;22.42;14.68;;;4.70;99.90;;;;;;5098337;28;20037;-72
2022/04/04 07:38:43;;;;;;;21.50;14.25;;;4.80;99.90;;;;;;5106074;22;20047;-71
2022/04/04 07:41:08;;;;;;;18.70;13.27;;;4.80;99.90;;;;;;5077881;28;20032;-71
2022/04/04 07:43:34;;;;;;;22.40;14.35;;;4.80;99.90;;;;;;5077845;28;20083;-70
2022/04/04 07:46:00;;;;;;;20.75;14.02;;;4.80;99.90;;;;;;5077729;28;20036;-71
2022/04/04 07:48:26;;;;;;;19.27;14.57;;;4.80;99.90;;;;;;5078372;28;20036;-70
2022/04/04 07:50:52;;;;;;;22.80;15.10;;;4.80;99.90;;;;;;5077700;28;20404;-71
2022/04/04 07:53:18;;;;;;;22.55;15.82;;;4.80;99.90;;;;;;5077729;28;20036;-71
2022/04/04 07:55:43;;;;;;;22.33;16.13;;;4.80;99.90;;;;;;5077614;28;20051;-71
2022/04/04 07:58:09;;;;;;;23.08;16.00;;;4.80;99.90;;;;;;5077523;28;20032;-71
2022/04/04 08:00:34;;;;;;;19.13;14.35;;;4.80;99.90;;;;;;5077490;28;20090;-70
2022/04/04 08:03:00;;;;;;;22.05;16.38;;;4.80;99.90;;;;;;5077563;28;20040;-70
2022/04/04 08:05:26;;;;;;;24.38;16.77;;;4.90;99.90;;;;;;5060983;28;20093;-70
2022/04/04 08:07:52;;;;;;;25.55;17.42;;;4.90;99.90;;;;;;5077192;28;20504;-70
2022/04/04 08:10:18;;;;;;;24.75;16.95;;;4.90;99.90;;;;;;5077613;28;20044;-71
2022/04/04 08:12:49;;;;;;;23.35;16.58;;;4.90;99.90;;;;;;5077523;28;20075;-71
2022/04/04 08:15:15;;;;;;;22.23;16.02;;;5.00;99.90;;;;;;5077308;28;20036;-71
2022/04/04 08:17:41;;;;;;;23.85;17.42;;;5.00;99.90;;;;;;5077157;28;20047;-71
2022/04/04 08:20:08;;;;;;;20.02;16.00;;;5.00;99.90;;;;;;5077088;28;20035;-71
2022/04/04 08:22:42;;;;;;;21.42;16.25;;;5.00;99.90;;;;;;5077073;28;20055;-71
2022/04/04 08:25:08;;;;;;;29.08;18.88;;;5.10;99.90;;;;;;5077342;28;20036;-71
2022/04/04 08:27:35;;;;;;;19.77;14.60;;;5.10;99.90;;;;;;5076970;28;20083;-70
2022/04/04 08:30:04;;;;;;;25.52;17.20;;;5.10;99.90;;;;;;5077151;28;20488;-70
2022/04/04 08:32:30;;;;;;;23.88;16.38;;;5.10;99.90;;;;;;5076811;28;20040;-70
2022/04/04 08:34:55;;;;;;;18.77;15.18;;;5.10;99.90;;;;;;5060238;28;20046;-70
2022/04/04 08:37:21;;;;;;;21.05;15.38;;;5.10;99.90;;;;;;5076911;28;20032;-70
2022/04/04 08:39:47;;;;;;;17.90;13.13;;;5.10;99.90;;;;;;5076750;28;20484;-71
2022/04/04 08:42:15;;;;;;;18.67;12.35;;;5.20;99.90;;;;;;5060009;28;20044;-71
2022/04/04 08:44:43;;;;;;;16.50;11.50;;;5.20;99.90;;;;;;5076624;28;20047;-71
2022/04/04 08:47:09;;;;;;;17.65;11.52;;;5.20;99.90;;;;;;5059822;28;20043;-71
2022/04/04 08:49:35;;;;;;;12.95;10.70;;;5.20;99.90;;;;;;5076066;28;20036;-71
2022/04/04 08:52:01;;;;;;;15.23;8.57;;;5.30;99.90;;;;;;5076807;28;20053;-71
2022/04/04 08:54:26;;;;;;;14.55;7.97;;;5.30;99.90;;;;;;5076427;28;20447;-71
2022/04/04 08:56:52;;;;;;;13.55;7.47;;;5.30;99.90;;;;;;5076334;28;20105;-71
2022/04/04 08:59:18;;;;;;;11.45;7.25;;;5.30;99.90;;;;;;5059753;28;20032;-71
2022/04/04 09:01:43;;;;;;;13.70;7.70;;;5.40;99.90;;;;;;5059686;28;20044;-72
2022/04/04 09:04:09;;;;;;;9.27;5.53;;;5.40;99.90;;;;;;5076314;28;20036;-71
2022/04/04 09:06:57;;;;;;;8.05;4.78;;;5.40;99.90;;;;;;5059712;28;20495;-71
2022/04/04 09:09:42;;;;;;;7.47;4.43;;;5.50;99.90;;;;;;5076444;28;20036;-71
2022/04/04 09:12:10;;;;;;;11.32;4.75;;;5.50;99.90;;;;;;5076223;28;20040;-71
2022/04/04 09:14:45;;;;;;;6.30;3.92;;;5.50;99.90;;;;;;5076048;28;20040;-71
2022/04/04 09:17:15;;;;;;;8.52;3.33;;;5.50;99.90;;;;;;5075993;28;20036;-71
2022/04/04 09:19:42;;;;;;;10.00;3.78;;;5.50;99.90;;;;;;5076009;28;20051;-71
2022/04/04 09:22:13;;;;;;;8.27;4.20;;;5.60;99.90;;;;;;5059496;28;20035;-71
2022/04/04 09:25:01;;;;;;;6.95;3.50;;;5.50;99.90;;;;;;5075879;28;20491;-71
2022/04/04 09:27:32;;;;;;;9.25;3.30;;;5.60;99.90;;;;;;5075692;28;20039;-71
2022/04/04 09:30:01;;;;;;;6.43;2.63;;;5.60;99.90;;;;;;5059375;28;20050;-71
2022/04/04 09:32:40;;;;;;;8.10;3.40;;;5.70;99.90;;;;;;5075724;28;20469;-71
2022/04/04 09:35:14;;;;;;;8.13;3.22;;;5.70;99.90;;;;;;5075975;28;20040;-72
2022/04/04 09:37:48;;;;;;;7.47;3.05;;;5.70;99.90;;;;;;5075685;28;20115;-72
2022/04/04 09:40:16;;;;;;;8.60;3.28;;;5.70;99.90;;;;;;5075616;28;20044;-71
2022/04/04 09:42:51;;;;;;;7.22;2.97;;;5.70;99.90;;;;;;5075684;28;20054;-72
2022/04/04 09:45:18;;;;;;;6.63;2.70;;;5.70;99.90;;;;;;5075541;28;20040;-72
2022/04/04 09:47:45;;;;;;;6.97;2.83;;;5.70;99.90;;;;;;5075325;28;20135;-71
2022/04/04 09:50:29;;;;;;;5.60;2.78;;;5.80;99.90;;;;;;5058826;28;20050;-72
2022/04/04 09:52:57;;;;;;;;;;;5.80;99.90;;;;;;5076149;28;20059;-71
2022/04/04 09:55:34;;;;;;;8.90;3.10;;;5.80;99.90;;;;;;5075701;28;19965;-71
2022/04/04 09:58:02;;;;;;;8.65;3.70;;;5.80;99.90;;;;;;5058747;28;20510;-71
2022/04/04 10:00:28;;;;;;;7.30;3.05;;;5.80;99.90;;;;;;5074567;28;20047;-71
2022/04/04 10:02:58;;;;;;;7.80;3.10;;;5.80;99.90;;;;;;5075773;28;20032;-71
2022/04/04 10:05:25;;;;;;;6.25;2.95;;;5.90;99.90;;;;;;5075638;28;20500;-72
2022/04/04 10:07:55;;;;;;;8.25;3.30;;;5.90;99.90;;;;;;5075213;28;20072;-72
2022/04/04 10:10:26;;;;;;;5.10;2.72;;;5.90;99.90;;;;;;5058721;28;20613;-72
2022/04/04 10:12:53;;;;;;;10.20;2.88;;;5.90;99.90;;;;;;5075623;28;20040;-72
2022/04/04 10:15:20;;;;;;;7.57;3.15;;;5.90;99.90;;;;;;5075436;28;20070;-72
2022/04/04 10:17:46;;;;;;;6.95;2.80;;;5.90;99.90;;;;;;5075493;28;20055;-72
2022/04/04 10:20:12;;;;;;;7.97;3.40;;;5.90;99.90;;;;;;5075400;28;20043;-72
2022/04/04 10:22:38;;;;;;;4.07;2.70;;;5.90;99.90;;;;;;5075195;28;20046;-72
2022/04/04 10:25:07;;;;;;;7.72;3.22;;;5.90;99.90;;;;;;5075312;28;20077;-71
2022/04/04 10:27:35;;;;;;;7.75;3.22;;;6.00;99.90;;;;;;5074930;28;20040;-71
2022/04/04 10:30:06;;;;;;;7.65;3.55;;;6.00;99.90;;;;;;5075586;28;20123;-71
2022/04/04 10:32:32;;;;;;;9.35;4.53;;;6.00;99.90;;;;;;5075320;28;20141;-72
2022/04/04 10:35:10;;;;;;;7.35;3.80;;;6.00;99.90;;;;;;5075303;28;20468;-72
2022/04/04 10:37:46;;;;;;;11.45;4.30;;;6.00;99.90;;;;;;5074800;28;20097;-72
2022/04/04 10:40:23;;;;;;;5.97;3.78;;;6.00;99.90;;;;;;5058365;28;20036;-72
2022/04/04 10:43:10;;;;;;;7.97;3.88;;;6.00;99.90;;;;;;5075002;28;20040;-72
2022/04/04 10:46:05;;;;;;;7.85;3.67;;;6.00;99.90;;;;;;5074902;28;20051;-72
2022/04/04 10:48:39;;;;;;;9.30;4.43;;;6.00;99.90;;;;;;5072596;28;20469;-72
2022/04/04 10:51:12;;;;;;;5.32;3.65;;;6.10;99.90;;;;;;5074910;28;20044;-72
2022/04/04 10:53:50;;;;;;;6.72;3.47;;;6.00;99.90;;;;;;5058179;28;20044;-72
2022/04/04 10:56:21;;;;;;;7.95;3.33;;;6.10;99.90;;;;;;5074848;28;20043;-72
2022/04/04 10:58:47;;;;;;;10.27;4.32;;;6.10;99.90;;;;;;5058058;28;20047;-72
2022/04/04 11:01:20;;;;;;;8.40;3.55;;;6.10;99.90;;;;;;5074812;28;20047;-72
2022/04/04 11:03:52;;;;;;;6.55;3.03;;;6.20;99.90;;;;;;5074860;28;20048;-72
2022/04/04 11:09:18;;;;;;;6.22;3.42;;;6.20;99.90;;;;;;5074587;28;20119;-72
2022/04/04 11:11:50;;;;;;;6.53;3.28;;;6.30;99.90;;;;;;5075216;28;20078;-72
2022/04/04 11:14:39;;;;;;;6.85;2.60;;;6.30;99.90;;;;;;5078443;28;20493;-72
2022/04/04 11:19:51;;;;;;;6.57;3.40;;;6.40;99.90;;;;;;5078276;28;20048;-72
2022/04/04 11:22:22;;;;;;;7.90;3.47;;;6.50;99.90;;;;;;5078220;28;20392;-72
2022/04/04 11:25:03;;;;;;;7.25;2.88;;;6.50;99.90;;;;;;5078552;28;20104;-72
2022/04/04 11:27:35;;;;;;;6.15;3.08;;;6.50;99.90;;;;;;5078190;28;20040;-72
2022/04/04 11:30:10;;;;;;;5.57;2.58;;;6.50;99.90;;;;;;5078197;28;20513;-72
2022/04/04 11:32:40;;;;;;;3.90;2.47;;;6.60;99.90;;;;;;5078369;28;20487;-72
2022/04/04 11:35:14;;;;;;;6.43;3.13;;;6.60;99.90;;;;;;5061428;28;20032;-72
2022/04/04 11:37:51;;;;;;;4.03;1.92;;;6.70;99.90;;;;;;5077744;28;20096;-72
2022/04/04 11:40:23;;;;;;;4.10;2.42;;;6.70;99.90;;;;;;5077929;28;20047;-71
2022/04/04 11:42:51;;;;;;;4.13;2.03;;;6.80;99.90;;;;;;5077952;28;20518;-72
2022/04/04 11:45:22;;;;;;;6.75;2.00;;;6.80;99.90;;;;;;5077875;28;20036;-72
2022/04/04 11:47:50;;;;;;;2.05;1.77;;;6.80;99.90;;;;;;5077773;28;20119;-72
2022/04/04 11:50:15;;;;;;;3.60;1.90;;;6.90;99.90;;;;;;5078104;28;20055;-72
2022/04/04 11:53:00;;;;;;;4.20;1.73;;;6.90;99.90;;;;;;5077751;28;20492;-72
2022/04/04 11:55:27;;;;;;;4.47;1.90;;;6.90;99.90;;;;;;5061040;28;20039;-72
2022/04/04 11:58:00;;;;;;;2.45;1.50;;;6.90;99.90;;;;;;5061198;28;20079;-72
2022/04/04 12:00:33;;;;;;;;;;;6.90;99.90;;;;;;5061267;28;20123;-72
2022/04/04 12:03:10;;;;;;;2.77;1.43;;;6.90;99.90;;;;;;5077630;28;19941;-72
2022/04/04 12:05:47;;;;;;;4.43;1.83;;;6.90;99.90;;;;;;5077546;28;20047;-72
2022/04/04 12:08:15;;;;;;;2.38;1.70;;;7.00;99.90;;;;;;5077364;28;20492;-72
2022/04/04 12:10:42;;;;;;;4.50;2.35;;;7.00;99.90;;;;;;5077506;28;20044;-72
2022/04/04 12:13:13;;;;;;;3.42;1.58;;;7.00;99.90;;;;;;5077404;28;20040;-72
2022/04/04 12:15:44;;;;;;;3.33;1.88;;;7.10;99.90;;;;;;5077353;28;20461;-72
2022/04/04 12:18:42;;;;;;;3.58;1.50;;;7.10;99.90;;;;;;5077238;28;20036;-72
2022/04/04 12:21:08;;;;;;;2.45;1.60;;;7.10;99.90;;;;;;4997200;28;20462;-72
2022/04/04 12:26:23;;;;;;;3.72;1.40;;;7.20;99.90;;;;;;4996643;28;20045;-71
2022/04/04 12:28:49;;;;;;;3.40;1.20;;;7.20;99.90;;;;;;4980514;28;20482;-72
2022/04/04 12:31:19;;;;;;;2.85;1.92;;;7.20;99.90;;;;;;4996764;28;20052;-72
2022/04/04 12:33:51;;;;;;;4.47;1.65;;;7.30;99.90;;;;;;5012954;28;20629;-72
2022/04/04 12:36:27;;;;;;;2.97;1.65;;;7.30;99.90;;;;;;4996925;28;20418;-72
2022/04/04 12:38:57;;;;;;;3.58;1.70;;;7.30;99.90;;;;;;4980638;28;20077;-72
2022/04/04 12:41:23;;;;;;;3.28;1.55;;;7.30;99.90;;;;;;4996740;28;20045;-72
2022/04/04 12:44:05;;;;;;;3.03;1.10;;;7.30;99.90;;;;;;4996459;28;20046;-72
2022/04/04 12:46:33;;;;;;;4.10;1.70;;;7.40;99.90;;;;;;4996353;28;20052;-72
2022/04/04 12:49:08;;;;;;;3.85;1.55;;;7.40;99.90;;;;;;4996329;28;20449;-72
2022/04/04 12:51:34;;;;;;;4.53;1.65;;;7.40;99.90;;;;;;4996483;28;20136;-72
2022/04/04 12:54:00;;;;;;;2.92;1.13;;;7.40;99.90;;;;;;5012856;28;20046;-72
2022/04/04 12:56:31;;;;;;;2.95;1.40;;;7.40;99.90;;;;;;5019177;28;20505;-72
2022/04/04 12:59:10;;;;;;;2.25;1.33;;;7.50;99.90;;;;;;5076265;28;20067;-72
2022/04/04 13:01:37;;;;;;;2.65;1.50;;;7.50;99.90;;;;;;5076341;28;20078;-72